sensor_id;sensor_type;location;lat;lon;timestamp;pressure;altitude;pressure_sealevel;temperature
49154;BMP280;49455;52.252;9.124;2022-10-31T07:48:59;100160.22;;;13.48
49154;BMP280;49455;52.252;9.124;2022-10-31T07:54:17;100149.53;;;13.72
49154;BMP280;49455;52.252;9.124;2022-10-31T07:59:18;100130.34;;;14.04
49154;BMP280;49455;52.252;9.124;2022-10-31T08:04:18;100126.69;;;14.35
49154;BMP280;49455;52.252;9.124;2022-10-31T08:09:37;100111.78;;;14.74
49154;BMP280;49455;52.252;9.124;2022-10-31T08:14:48;100106.09;;;14.97
49154;BMP280;49455;52.252;9.124;2022-10-31T08:19:52;100101.31;;;15.22
49154;BMP280;49455;52.252;9.124;2022-10-31T08:24:55;100104.28;;;15.45
49154;BMP280;49455;52.252;9.124;2022-10-31T08:29:56;100105.63;;;15.78
49154;BMP280;49455;52.252;9.124;2022-10-31T08:34:57;100111.97;;;16.00
49154;BMP280;49455;52.252;9.124;2022-10-31T08:39:57;100095.72;;;16.18
49154;BMP280;49455;52.252;9.124;2022-10-31T08:44:58;100099.47;;;16.42
49154;BMP280;49455;52.252;9.124;2022-10-31T08:49:58;100106.38;;;16.36
49154;BMP280;49455;52.252;9.124;2022-10-31T08:54:59;100107.22;;;16.35
49154;BMP280;49455;52.252;9.124;2022-10-31T09:00:18;100095.19;;;16.47
49154;BMP280;49455;52.252;9.124;2022-10-31T09:05:28;100086.41;;;16.41
49154;BMP280;49455;52.252;9.124;2022-10-31T09:10:32;100089.88;;;16.37
49154;BMP280;49455;52.252;9.124;2022-10-31T09:15:37;100088.13;;;16.36
49154;BMP280;49455;52.252;9.124;2022-10-31T09:20:51;100086.25;;;16.26
49154;BMP280;49455;52.252;9.124;2022-10-31T09:25:53;100080.25;;;16.32
49154;BMP280;49455;52.252;9.124;2022-10-31T09:31:08;100082.56;;;16.11
49154;BMP280;49455;52.252;9.124;2022-10-31T09:36:27;100071.25;;;16.07
49154;BMP280;49455;52.252;9.124;2022-10-31T09:41:35;100065.31;;;16.19
49154;BMP280;49455;52.252;9.124;2022-10-31T09:57:25;100068.03;;;16.29
49154;BMP280;49455;52.252;9.124;2022-10-31T10:08:01;100061.38;;;16.58
49154;BMP280;49455;52.252;9.124;2022-10-31T10:14:02;100065.66;;;16.50
49154;BMP280;49455;52.252;9.124;2022-10-31T10:24:46;100069.94;;;16.46
49154;BMP280;49455;52.252;9.124;2022-10-31T10:35:34;100065.06;;;16.80
49154;BMP280;49455;52.252;9.124;2022-10-31T10:40:37;100068.69;;;16.98
49154;BMP280;49455;52.252;9.124;2022-10-31T10:45:38;100062.44;;;16.80
49154;BMP280;49455;52.252;9.124;2022-10-31T10:50:48;100053.88;;;16.97
49154;BMP280;49455;52.252;9.124;2022-10-31T10:56:18;100040.88;;;17.02
49154;BMP280;49455;52.252;9.124;2022-10-31T11:01:22;100035.59;;;16.96
49154;BMP280;49455;52.252;9.124;2022-10-31T11:06:23;100035.59;;;16.96
49154;BMP280;49455;52.252;9.124;2022-10-31T11:11:26;100026.94;;;16.98
49154;BMP280;49455;52.252;9.124;2022-10-31T11:16:35;100020.75;;;16.89
49154;BMP280;49455;52.252;9.124;2022-10-31T11:21:36;100019.09;;;16.98
49154;BMP280;49455;52.252;9.124;2022-10-31T11:26:38;100018.34;;;17.13
49154;BMP280;49455;52.252;9.124;2022-10-31T11:31:39;100002.66;;;17.11
49154;BMP280;49455;52.252;9.124;2022-10-31T11:36:43;99991.38;;;17.17
49154;BMP280;49455;52.252;9.124;2022-10-31T11:41:44;99978.25;;;17.09
49154;BMP280;49455;52.252;9.124;2022-10-31T11:46:51;99982.72;;;17.24
49154;BMP280;49455;52.252;9.124;2022-10-31T11:51:54;99968.88;;;17.39
49154;BMP280;49455;52.252;9.124;2022-10-31T11:56:57;99988.09;;;17.56
49154;BMP280;49455;52.252;9.124;2022-10-31T12:01:59;99982.88;;;17.53
49154;BMP280;49455;52.252;9.124;2022-10-31T12:06:59;99976.81;;;17.64
49154;BMP280;49455;52.252;9.124;2022-10-31T12:28:04;99949.94;;;18.17
49154;BMP280;49455;52.252;9.124;2022-10-31T12:44:30;99923.78;;;18.14
49154;BMP280;49455;52.252;9.124;2022-10-31T12:49:52;99907.25;;;18.24
49154;BMP280;49455;52.252;9.124;2022-10-31T12:55:09;99896.75;;;18.59
49154;BMP280;49455;52.252;9.124;2022-10-31T13:00:17;99889.78;;;18.52
49154;BMP280;49455;52.252;9.124;2022-10-31T13:05:31;99877.53;;;18.71
49154;BMP280;49455;52.252;9.124;2022-10-31T13:10:40;99870.59;;;18.39
49154;BMP280;49455;52.252;9.124;2022-10-31T13:16:15;99861.03;;;18.32
49154;BMP280;49455;52.252;9.124;2022-10-31T13:21:41;99846.19;;;18.47
49154;BMP280;49455;52.252;9.124;2022-10-31T13:26:50;99840.06;;;18.47
49154;BMP280;49455;52.252;9.124;2022-10-31T13:31:52;99833.91;;;18.55
49154;BMP280;49455;52.252;9.124;2022-10-31T13:47:28;99786.84;;;18.46
49154;BMP280;49455;52.252;9.124;2022-10-31T13:52:29;99784.25;;;18.45
49154;BMP280;49455;52.252;9.124;2022-10-31T13:57:32;99780.72;;;18.59
49154;BMP280;49455;52.252;9.124;2022-10-31T14:02:35;99773.78;;;18.48
49154;BMP280;49455;52.252;9.124;2022-10-31T14:07:42;99774.66;;;18.42
49154;BMP280;49455;52.252;9.124;2022-10-31T14:12:45;99777.28;;;18.35
49154;BMP280;49455;52.252;9.124;2022-10-31T14:17:56;99768.59;;;18.21
49154;BMP280;49455;52.252;9.124;2022-10-31T14:22:57;99753.78;;;18.26
49154;BMP280;49455;52.252;9.124;2022-10-31T14:27:59;99753.81;;;18.13
49154;BMP280;49455;52.252;9.124;2022-10-31T14:33:02;99750.31;;;17.99
49154;BMP280;49455;52.252;9.124;2022-10-31T14:38:29;99734.59;;;17.84
49154;BMP280;49455;52.252;9.124;2022-10-31T14:54:20;99733.78;;;17.66
49154;BMP280;49455;52.252;9.124;2022-10-31T14:59:30;99708.50;;;17.46
49154;BMP280;49455;52.252;9.124;2022-10-31T15:04:31;99708.50;;;17.43
49154;BMP280;49455;52.252;9.124;2022-10-31T15:09:33;99699.81;;;17.30
49154;BMP280;49455;52.252;9.124;2022-10-31T15:14:34;99692.81;;;17.16
49154;BMP280;49455;52.252;9.124;2022-10-31T15:19:35;99690.22;;;17.12
49154;BMP280;49455;52.252;9.124;2022-10-31T15:24:38;99669.28;;;17.09
49154;BMP280;49455;52.252;9.124;2022-10-31T15:29:51;99664.06;;;17.09
49154;BMP280;49455;52.252;9.124;2022-10-31T15:34:52;99671.88;;;17.06
49154;BMP280;49455;52.252;9.124;2022-10-31T15:39:53;99659.66;;;16.84
49154;BMP280;49455;52.252;9.124;2022-10-31T15:45:00;99651.81;;;16.75
49154;BMP280;49455;52.252;9.124;2022-10-31T15:50:03;99651.81;;;16.72
49154;BMP280;49455;52.252;9.124;2022-10-31T16:05:23;99639.59;;;16.57
49154;BMP280;49455;52.252;9.124;2022-10-31T16:10:25;99634.34;;;16.48
49154;BMP280;49455;52.252;9.124;2022-10-31T16:15:26;99630.84;;;16.46
49154;BMP280;49455;52.252;9.124;2022-10-31T16:20:28;99611.75;;;16.44
49154;BMP280;49455;52.252;9.124;2022-10-31T16:25:34;99609.16;;;16.47
49154;BMP280;49455;52.252;9.124;2022-10-31T16:30:41;99596.94;;;16.46
49154;BMP280;49455;52.252;9.124;2022-10-31T16:35:41;99600.47;;;16.49
49154;BMP280;49455;52.252;9.124;2022-10-31T16:40:43;99593.53;;;16.70
49154;BMP280;49455;52.252;9.124;2022-10-31T16:45:48;99591.78;;;16.81
49154;BMP280;49455;52.252;9.124;2022-10-31T16:50:50;99592.66;;;16.89
49154;BMP280;49455;52.252;9.124;2022-10-31T16:56:01;99593.56;;;17.01
49154;BMP280;49455;52.252;9.124;2022-10-31T17:01:06;99597.00;;;17.00
49154;BMP280;49455;52.252;9.124;2022-10-31T17:06:13;99596.16;;;17.03
49154;BMP280;49455;52.252;9.124;2022-10-31T17:11:17;99586.59;;;16.96
49154;BMP280;49455;52.252;9.124;2022-10-31T17:16:18;99594.44;;;16.96
49154;BMP280;49455;52.252;9.124;2022-10-31T17:21:22;99583.97;;;16.92
49154;BMP280;49455;52.252;9.124;2022-10-31T17:26:24;99591.81;;;16.90
49154;BMP280;49455;52.252;9.124;2022-10-31T17:31:29;99578.78;;;16.90
49154;BMP280;49455;52.252;9.124;2022-10-31T17:36:31;99573.53;;;16.84
49154;BMP280;49455;52.252;9.124;2022-10-31T17:41:32;99590.94;;;16.84
49154;BMP280;49455;52.252;9.124;2022-10-31T17:46:36;99578.75;;;16.74
49154;BMP280;49455;52.252;9.124;2022-10-31T17:51:37;99576.13;;;16.68
49154;BMP280;49455;52.252;9.124;2022-10-31T17:56:38;99572.66;;;16.72
49154;BMP280;49455;52.252;9.124;2022-10-31T18:01:38;99561.34;;;16.68
49154;BMP280;49455;52.252;9.124;2022-10-31T18:06:39;99567.41;;;16.64
49154;BMP280;49455;52.252;9.124;2022-10-31T18:11:40;99557.88;;;16.64
49154;BMP280;49455;52.252;9.124;2022-10-31T18:16:40;99550.88;;;16.57
49154;BMP280;49455;52.252;9.124;2022-10-31T18:21:41;99551.78;;;16.53
49154;BMP280;49455;52.252;9.124;2022-10-31T18:26:42;99551.75;;;16.47
49154;BMP280;49455;52.252;9.124;2022-10-31T18:31:42;99534.38;;;16.41
49154;BMP280;49455;52.252;9.124;2022-10-31T18:36:43;99524.81;;;16.42
49154;BMP280;49455;52.252;9.124;2022-10-31T18:41:43;99528.25;;;16.35
49154;BMP280;49455;52.252;9.124;2022-10-31T18:46:44;99519.53;;;16.27
49154;BMP280;49455;52.252;9.124;2022-10-31T18:51:44;99508.25;;;16.27
49154;BMP280;49455;52.252;9.124;2022-10-31T18:56:45;99496.94;;;16.23
49154;BMP280;49455;52.252;9.124;2022-10-31T19:01:45;99484.78;;;16.28
49154;BMP280;49455;52.252;9.124;2022-10-31T19:06:46;99481.31;;;16.31
49154;BMP280;49455;52.252;9.124;2022-10-31T19:11:46;99461.31;;;16.33
49154;BMP280;49455;52.252;9.124;2022-10-31T19:16:47;99465.66;;;16.32
49154;BMP280;49455;52.252;9.124;2022-10-31T19:21:50;99453.50;;;16.40
49154;BMP280;49455;52.252;9.124;2022-10-31T19:26:50;99431.78;;;16.39
49154;BMP280;49455;52.252;9.124;2022-10-31T19:31:51;99419.59;;;16.33
49154;BMP280;49455;52.252;9.124;2022-10-31T19:36:52;99419.59;;;16.37
49154;BMP280;49455;52.252;9.124;2022-10-31T19:41:52;99408.31;;;16.44
49154;BMP280;49455;52.252;9.124;2022-10-31T19:46:53;99413.53;;;16.47
49154;BMP280;49455;52.252;9.124;2022-10-31T19:51:53;99391.78;;;16.51
49154;BMP280;49455;52.252;9.124;2022-10-31T19:56:54;99388.31;;;16.50
49154;BMP280;49455;52.252;9.124;2022-10-31T20:01:54;99407.41;;;16.63
49154;BMP280;49455;52.252;9.124;2022-10-31T20:06:55;99403.94;;;16.64
49154;BMP280;49455;52.252;9.124;2022-10-31T20:11:55;99397.81;;;16.70
49154;BMP280;49455;52.252;9.124;2022-10-31T20:16:55;99403.06;;;16.67
49154;BMP280;49455;52.252;9.124;2022-10-31T20:21:56;99403.94;;;16.69
49154;BMP280;49455;52.252;9.124;2022-10-31T20:26:56;99405.66;;;16.75
49154;BMP280;49455;52.252;9.124;2022-10-31T20:31:57;99398.72;;;16.71
49154;BMP280;49455;52.252;9.124;2022-10-31T20:36:57;99389.16;;;16.68
49154;BMP280;49455;52.252;9.124;2022-10-31T20:41:58;99400.44;;;16.67
49154;BMP280;49455;52.252;9.124;2022-10-31T20:46:58;99384.78;;;16.70
49154;BMP280;49455;52.252;9.124;2022-10-31T20:51:58;99392.63;;;16.64
49154;BMP280;49455;52.252;9.124;2022-10-31T20:56:59;99391.78;;;16.61
49154;BMP280;49455;52.252;9.124;2022-10-31T21:01:59;99380.50;;;16.55
49154;BMP280;49455;52.252;9.124;2022-10-31T21:07:00;99372.66;;;16.53
49154;BMP280;49455;52.252;9.124;2022-10-31T21:12:00;99373.53;;;16.48
49154;BMP280;49455;52.252;9.124;2022-10-31T21:17:00;99386.56;;;16.37
49154;BMP280;49455;52.252;9.124;2022-10-31T21:22:02;99389.16;;;16.27
49154;BMP280;49455;52.252;9.124;2022-10-31T21:27:03;99384.84;;;16.23
49154;BMP280;49455;52.252;9.124;2022-10-31T21:32:03;99372.69;;;16.25
49154;BMP280;49455;52.252;9.124;2022-10-31T21:37:04;99374.41;;;16.26
49154;BMP280;49455;52.252;9.124;2022-10-31T21:42:04;99368.31;;;16.27
49154;BMP280;49455;52.252;9.124;2022-10-31T21:47:05;99368.31;;;16.27
49154;BMP280;49455;52.252;9.124;2022-10-31T21:52:05;99350.91;;;16.41
49154;BMP280;49455;52.252;9.124;2022-10-31T21:57:06;99355.28;;;16.48
49154;BMP280;49455;52.252;9.124;2022-10-31T22:02:07;99364.81;;;16.46
